sensor_id;sensor_type;location;lat;lon;timestamp;pressure;altitude;pressure_sealevel;temperature;humidity
79400;BME280;68856;45.586;10.264;2024-01-15T00:00:47;98428.50;;;4.02;nan
79400;BME280;68856;45.586;10.264;2024-01-15T00:03:14;98423.22;;;3.61;nan
79400;BME280;68856;45.586;10.264;2024-01-15T00:05:40;98428.88;;;3.41;nan
79400;BME280;68856;45.586;10.264;2024-01-15T00:08:06;98424.78;;;3.39;nan
79400;BME280;68856;45.586;10.264;2024-01-15T00:10:33;98431.88;;;3.33;nan
79400;BME280;68856;45.586;10.264;2024-01-15T00:12:59;98414.03;;;3.27;nan
79400;BME280;68856;45.586;10.264;2024-01-15T00:15:26;98417.88;;;3.31;nan
79400;BME280;68856;45.586;10.264;2024-01-15T00:17:54;98416.88;;;3.44;nan
79400;BME280;68856;45.586;10.264;2024-01-15T00:20:20;98402.78;;;3.60;nan
79400;BME280;68856;45.586;10.264;2024-01-15T00:22:46;98406.06;;;3.73;nan
79400;BME280;68856;45.586;10.264;2024-01-15T00:31:40;98395.31;;;3.50;nan
79400;BME280;68856;45.586;10.264;2024-01-15T00:34:06;98400.22;;;3.53;nan
79400;BME280;68856;45.586;10.264;2024-01-15T00:36:32;98400.22;;;3.65;nan
79400;BME280;68856;45.586;10.264;2024-01-15T00:38:58;98389.38;;;3.83;nan
79400;BME280;68856;45.586;10.264;2024-01-15T00:41:25;98386.09;;;3.93;nan
79400;BME280;68856;45.586;10.264;2024-01-15T00:43:53;98381.91;;;3.97;nan
79400;BME280;68856;45.586;10.264;2024-01-15T00:46:19;98377.69;;;3.89;nan
79400;BME280;68856;45.586;10.264;2024-01-15T00:48:46;98364.81;;;4.03;nan
79400;BME280;68856;45.586;10.264;2024-01-15T00:51:13;98367.88;;;3.83;nan
79400;BME280;68856;45.586;10.264;2024-01-15T00:53:39;98370.56;;;3.71;nan
79400;BME280;68856;45.586;10.264;2024-01-15T00:56:06;98364.25;;;3.66;nan
79400;BME280;68856;45.586;10.264;2024-01-15T00:58:32;98376.88;;;3.65;nan
79400;BME280;68856;45.586;10.264;2024-01-15T01:00:58;98365.44;;;3.82;nan
79400;BME280;68856;45.586;10.264;2024-01-15T01:03:24;98373.34;;;4.11;nan
79400;BME280;68856;45.586;10.264;2024-01-15T01:05:51;98364.09;;;4.30;nan
79400;BME280;68856;45.586;10.264;2024-01-15T01:08:17;98366.63;;;4.49;nan
79400;BME280;68856;45.586;10.264;2024-01-15T01:10:43;98352.44;;;4.53;nan
79400;BME280;68856;45.586;10.264;2024-01-15T01:13:10;98352.50;;;4.70;nan
79400;BME280;68856;45.586;10.264;2024-01-15T01:15:36;98352.09;;;4.50;nan
79400;BME280;68856;45.586;10.264;2024-01-15T01:18:03;98351.88;;;3.88;nan
79400;BME280;68856;45.586;10.264;2024-01-15T01:20:30;98349.66;;;3.73;nan
79400;BME280;68856;45.586;10.264;2024-01-15T01:22:56;98343.22;;;3.74;nan
79400;BME280;68856;45.586;10.264;2024-01-15T01:25:22;98336.59;;;3.89;nan
79400;BME280;68856;45.586;10.264;2024-01-15T01:27:48;98335.38;;;4.08;nan
79400;BME280;68856;45.586;10.264;2024-01-15T01:30:15;98333.50;;;4.08;nan
79400;BME280;68856;45.586;10.264;2024-01-15T01:32:41;98318.03;;;3.75;nan
79400;BME280;68856;45.586;10.264;2024-01-15T01:35:07;98333.09;;;3.65;nan
79400;BME280;68856;45.586;10.264;2024-01-15T01:37:33;98340.63;;;3.33;nan
79400;BME280;68856;45.586;10.264;2024-01-15T01:40:00;98337.41;;;3.66;nan
79400;BME280;68856;45.586;10.264;2024-01-15T01:42:26;98329.69;;;3.46;nan
79400;BME280;68856;45.586;10.264;2024-01-15T01:44:53;98326.44;;;3.44;nan
79400;BME280;68856;45.586;10.264;2024-01-15T01:47:19;98319.16;;;3.33;nan
79400;BME280;68856;45.586;10.264;2024-01-15T01:49:46;98307.38;;;3.11;nan
79400;BME280;68856;45.586;10.264;2024-01-15T01:52:12;98305.03;;;3.03;nan
79400;BME280;68856;45.586;10.264;2024-01-15T01:54:41;98309.56;;;3.02;nan
79400;BME280;68856;45.586;10.264;2024-01-15T01:57:08;98306.63;;;2.81;nan
79400;BME280;68856;45.586;10.264;2024-01-15T01:59:35;98310.47;;;2.85;nan
79400;BME280;68856;45.586;10.264;2024-01-15T02:02:03;98316.59;;;2.74;nan
79400;BME280;68856;45.586;10.264;2024-01-15T02:04:31;98301.38;;;2.86;nan
79400;BME280;68856;45.586;10.264;2024-01-15T02:06:57;98305.28;;;2.60;nan
79400;BME280;68856;45.586;10.264;2024-01-15T02:09:24;98296.28;;;2.55;nan
79400;BME280;68856;45.586;10.264;2024-01-15T02:11:51;98297.13;;;2.37;nan
79400;BME280;68856;45.586;10.264;2024-01-15T02:14:17;98286.97;;;2.57;nan
79400;BME280;68856;45.586;10.264;2024-01-15T02:16:44;98284.66;;;2.61;nan
79400;BME280;68856;45.586;10.264;2024-01-15T02:19:17;98291.28;;;2.58;nan
79400;BME280;68856;45.586;10.264;2024-01-15T02:21:43;98270.84;;;3.10;nan
79400;BME280;68856;45.586;10.264;2024-01-15T02:24:10;98281.72;;;3.03;nan
79400;BME280;68856;45.586;10.264;2024-01-15T02:26:37;98282.88;;;3.31;nan
79400;BME280;68856;45.586;10.264;2024-01-15T02:29:04;98283.81;;;3.01;nan
79400;BME280;68856;45.586;10.264;2024-01-15T02:31:31;98286.47;;;2.90;nan
79400;BME280;68856;45.586;10.264;2024-01-15T02:33:57;98287.66;;;2.94;nan
79400;BME280;68856;45.586;10.264;2024-01-15T02:36:23;98297.44;;;2.88;nan
79400;BME280;68856;45.586;10.264;2024-01-15T02:38:49;98295.28;;;2.79;nan
79400;BME280;68856;45.586;10.264;2024-01-15T02:41:16;98296.09;;;2.79;nan
79400;BME280;68856;45.586;10.264;2024-01-15T02:43:42;98306.31;;;3.00;nan
79400;BME280;68856;45.586;10.264;2024-01-15T02:46:08;98290.47;;;3.22;nan
79400;BME280;68856;45.586;10.264;2024-01-15T02:48:35;98291.16;;;3.06;nan
79400;BME280;68856;45.586;10.264;2024-01-15T02:51:01;98295.16;;;3.27;nan
79400;BME280;68856;45.586;10.264;2024-01-15T02:53:28;98286.72;;;3.69;nan
79400;BME280;68856;45.586;10.264;2024-01-15T02:55:54;98273.88;;;3.83;nan
79400;BME280;68856;45.586;10.264;2024-01-15T02:58:21;98272.41;;;3.29;nan
79400;BME280;68856;45.586;10.264;2024-01-15T03:00:47;98274.13;;;3.00;nan
79400;BME280;68856;45.586;10.264;2024-01-15T03:03:13;98275.53;;;3.26;nan
79400;BME280;68856;45.586;10.264;2024-01-15T03:05:39;98265.97;;;3.53;nan
79400;BME280;68856;45.586;10.264;2024-01-15T03:08:06;98266.44;;;3.27;nan
79400;BME280;68856;45.586;10.264;2024-01-15T03:10:32;98273.78;;;3.20;nan
79400;BME280;68856;45.586;10.264;2024-01-15T03:12:58;98258.75;;;3.42;nan
79400;BME280;68856;45.586;10.264;2024-01-15T03:15:25;98263.44;;;3.35;nan
79400;BME280;68856;45.586;10.264;2024-01-15T03:17:51;98257.81;;;3.25;nan
79400;BME280;68856;45.586;10.264;2024-01-15T03:20:17;98257.34;;;3.17;nan
79400;BME280;68856;45.586;10.264;2024-01-15T03:22:43;98255.34;;;3.00;nan
79400;BME280;68856;45.586;10.264;2024-01-15T03:25:10;98243.34;;;3.14;nan
79400;BME280;68856;45.586;10.264;2024-01-15T03:27:36;98235.63;;;3.18;nan
79400;BME280;68856;45.586;10.264;2024-01-15T03:30:02;98225.97;;;2.94;nan
79400;BME280;68856;45.586;10.264;2024-01-15T03:32:29;98218.81;;;2.76;nan
79400;BME280;68856;45.586;10.264;2024-01-15T03:34:55;98216.50;;;2.80;nan
79400;BME280;68856;45.586;10.264;2024-01-15T03:37:21;98226.28;;;2.74;nan
79400;BME280;68856;45.586;10.264;2024-01-15T03:39:48;98225.31;;;2.57;nan
79400;BME280;68856;45.586;10.264;2024-01-15T03:42:14;98211.78;;;2.64;nan
79400;BME280;68856;45.586;10.264;2024-01-15T03:44:40;98202.03;;;2.81;nan
79400;BME280;68856;45.586;10.264;2024-01-15T03:47:06;98204.72;;;2.92;nan
79400;BME280;68856;45.586;10.264;2024-01-15T03:49:33;98198.56;;;3.03;nan
79400;BME280;68856;45.586;10.264;2024-01-15T03:51:59;98192.00;;;2.88;nan
79400;BME280;68856;45.586;10.264;2024-01-15T03:54:25;98179.38;;;3.46;nan
79400;BME280;68856;45.586;10.264;2024-01-15T03:56:52;98167.84;;;3.46;nan
79400;BME280;68856;45.586;10.264;2024-01-15T03:59:19;98176.06;;;3.04;nan
79400;BME280;68856;45.586;10.264;2024-01-15T04:01:51;98168.47;;;2.90;nan
79400;BME280;68856;45.586;10.264;2024-01-15T04:04:18;98157.28;;;2.93;nan
79400;BME280;68856;45.586;10.264;2024-01-15T04:06:44;98162.75;;;2.86;nan
79400;BME280;68856;45.586;10.264;2024-01-15T04:09:12;98160.31;;;2.85;nan
79400;BME280;68856;45.586;10.264;2024-01-15T04:11:38;98161.34;;;2.95;nan
79400;BME280;68856;45.586;10.264;2024-01-15T04:14:04;98169.38;;;2.72;nan
79400;BME280;68856;45.586;10.264;2024-01-15T04:16:30;98164.50;;;2.92;nan
79400;BME280;68856;45.586;10.264;2024-01-15T04:18:57;98171.97;;;2.90;nan
79400;BME280;68856;45.586;10.264;2024-01-15T04:21:23;98170.81;;;2.86;nan
79400;BME280;68856;45.586;10.264;2024-01-15T04:23:49;98183.72;;;2.89;nan
79400;BME280;68856;45.586;10.264;2024-01-15T04:26:15;98181.88;;;3.25;nan
79400;BME280;68856;45.586;10.264;2024-01-15T04:28:42;98170.22;;;3.19;nan
79400;BME280;68856;45.586;10.264;2024-01-15T04:31:08;98161.34;;;3.30;nan
79400;BME280;68856;45.586;10.264;2024-01-15T04:33:34;98156.19;;;3.40;nan
79400;BME280;68856;45.586;10.264;2024-01-15T04:36:04;98147.41;;;3.45;nan
79400;BME280;68856;45.586;10.264;2024-01-15T04:38:33;98140.75;;;3.87;nan
79400;BME280;68856;45.586;10.264;2024-01-15T04:41:02;98135.50;;;3.81;nan
79400;BME280;68856;45.586;10.264;2024-01-15T04:43:28;98132.81;;;3.41;nan
79400;BME280;68856;45.586;10.264;2024-01-15T04:45:54;98129.72;;;3.32;nan
79400;BME280;68856;45.586;10.264;2024-01-15T04:48:21;98132.84;;;3.29;nan
79400;BME280;68856;45.586;10.264;2024-01-15T04:50:49;98129.25;;;3.35;nan
79400;BME280;68856;45.586;10.264;2024-01-15T04:53:15;98116.03;;;3.34;nan
79400;BME280;68856;45.586;10.264;2024-01-15T04:55:41;98125.44;;;2.85;nan
79400;BME280;68856;45.586;10.264;2024-01-15T04:58:07;98132.91;;;2.60;nan
79400;BME280;68856;45.586;10.264;2024-01-15T05:00:33;98136.50;;;3.11;nan
79400;BME280;68856;45.586;10.264;2024-01-15T05:03:00;98128.25;;;2.67;nan
79400;BME280;68856;45.586;10.264;2024-01-15T05:05:26;98135.56;;;3.06;nan
79400;BME280;68856;45.586;10.264;2024-01-15T05:07:52;98122.69;;;3.43;nan
79400;BME280;68856;45.586;10.264;2024-01-15T05:10:18;98123.81;;;3.47;nan
79400;BME280;68856;45.586;10.264;2024-01-15T05:12:45;98123.81;;;3.58;nan
79400;BME280;68856;45.586;10.264;2024-01-15T05:15:11;98105.66;;;3.37;nan
79400;BME280;68856;45.586;10.264;2024-01-15T05:17:37;98106.13;;;3.34;nan
79400;BME280;68856;45.586;10.264;2024-01-15T05:20:04;98094.47;;;3.29;nan
79400;BME280;68856;45.586;10.264;2024-01-15T05:22:30;98098.13;;;3.23;nan
79400;BME280;68856;45.586;10.264;2024-01-15T05:24:57;98089.78;;;3.36;nan
79400;BME280;68856;45.586;10.264;2024-01-15T05:27:23;98081.41;;;3.21;nan
79400;BME280;68856;45.586;10.264;2024-01-15T05:29:49;98081.09;;;3.17;nan
79400;BME280;68856;45.586;10.264;2024-01-15T05:32:15;98084.81;;;3.28;nan
79400;BME280;68856;45.586;10.264;2024-01-15T05:34:42;98085.75;;;3.22;nan
79400;BME280;68856;45.586;10.264;2024-01-15T05:37:08;98093.94;;;3.55;nan
79400;BME280;68856;45.586;10.264;2024-01-15T05:39:34;98081.13;;;3.73;nan
79400;BME280;68856;45.586;10.264;2024-01-15T05:42:00;98080.94;;;3.35;nan
79400;BME280;68856;45.586;10.264;2024-01-15T05:44:27;98082.50;;;3.20;nan
79400;BME280;68856;45.586;10.264;2024-01-15T05:46:53;98079.97;;;3.01;nan
79400;BME280;68856;45.586;10.264;2024-01-15T05:49:20;98073.16;;;3.10;nan
79400;BME280;68856;45.586;10.264;2024-01-15T05:51:46;98079.63;;;2.86;nan
79400;BME280;68856;45.586;10.264;2024-01-15T05:54:13;98081.75;;;2.49;nan
79400;BME280;68856;45.586;10.264;2024-01-15T05:56:39;98082.91;;;2.65;nan
79400;BME280;68856;45.586;10.264;2024-01-15T05:59:06;98091.16;;;2.64;nan
79400;BME280;68856;45.586;10.264;2024-01-15T06:01:32;98074.19;;;2.58;nan
79400;BME280;68856;45.586;10.264;2024-01-15T06:03:58;98070.88;;;2.33;nan
79400;BME280;68856;45.586;10.264;2024-01-15T06:06:25;98071.94;;;2.20;nan
79400;BME280;68856;45.586;10.264;2024-01-15T06:08:51;98078.31;;;2.08;nan
79400;BME280;68856;45.586;10.264;2024-01-15T06:11:18;98075.31;;;2.27;nan
79400;BME280;68856;45.586;10.264;2024-01-15T06:13:44;98073.81;;;2.31;nan
79400;BME280;68856;45.586;10.264;2024-01-15T06:16:17;98078.69;;;2.23;nan
79400;BME280;68856;45.586;10.264;2024-01-15T06:18:45;98081.44;;;1.93;nan
79400;BME280;68856;45.586;10.264;2024-01-15T06:21:11;98080.16;;;1.96;nan
79400;BME280;68856;45.586;10.264;2024-01-15T06:23:40;98077.00;;;1.87;nan
79400;BME280;68856;45.586;10.264;2024-01-15T06:26:06;98079.72;;;1.99;nan
79400;BME280;68856;45.586;10.264;2024-01-15T06:28:33;98068.09;;;2.16;nan
79400;BME280;68856;45.586;10.264;2024-01-15T06:30:59;98075.72;;;1.89;nan
79400;BME280;68856;45.586;10.264;2024-01-15T06:33:25;98067.94;;;2.00;nan
79400;BME280;68856;45.586;10.264;2024-01-15T06:35:51;98067.06;;;1.76;nan
79400;BME280;68856;45.586;10.264;2024-01-15T06:38:18;98063.97;;;1.91;nan
79400;BME280;68856;45.586;10.264;2024-01-15T06:40:44;98068.72;;;1.88;nan
79400;BME280;68856;45.586;10.264;2024-01-15T06:43:14;98072.09;;;1.84;nan
79400;BME280;68856;45.586;10.264;2024-01-15T06:45:44;98057.34;;;2.05;nan
79400;BME280;68856;45.586;10.264;2024-01-15T06:48:10;98067.97;;;2.11;nan
79400;BME280;68856;45.586;10.264;2024-01-15T06:50:40;98065.28;;;2.11;nan
79400;BME280;68856;45.586;10.264;2024-01-15T06:53:06;98058.19;;;2.28;nan
79400;BME280;68856;45.586;10.264;2024-01-15T06:55:33;98049.81;;;2.13;nan
79400;BME280;68856;45.586;10.264;2024-01-15T06:57:59;98050.38;;;2.15;nan
79400;BME280;68856;45.586;10.264;2024-01-15T07:00:26;98050.38;;;2.04;nan
79400;BME280;68856;45.586;10.264;2024-01-15T07:02:53;98064.22;;;2.01;nan
79400;BME280;68856;45.586;10.264;2024-01-15T07:05:21;98067.94;;;2.00;nan
79400;BME280;68856;45.586;10.264;2024-01-15T07:07:47;98070.69;;;2.34;nan
79400;BME280;68856;45.586;10.264;2024-01-15T07:10:14;98064.28;;;2.47;nan
79400;BME280;68856;45.586;10.264;2024-01-15T07:12:42;98075.94;;;2.53;nan
79400;BME280;68856;45.586;10.264;2024-01-15T07:15:09;98083.38;;;2.62;nan
79400;BME280;68856;45.586;10.264;2024-01-15T07:17:36;98079.97;;;2.67;nan
79400;BME280;68856;45.586;10.264;2024-01-15T07:20:06;98077.19;;;2.73;nan
79400;BME280;68856;45.586;10.264;2024-01-15T07:22:35;98075.31;;;2.50;nan
79400;BME280;68856;45.586;10.264;2024-01-15T07:25:01;98080.22;;;2.53;nan
79400;BME280;68856;45.586;10.264;2024-01-15T07:27:28;98078.78;;;2.97;nan
79400;BME280;68856;45.586;10.264;2024-01-15T07:29:54;98077.53;;;2.88;nan
79400;BME280;68856;45.586;10.264;2024-01-15T07:32:20;98074.59;;;3.01;nan
79400;BME280;68856;45.586;10.264;2024-01-15T07:34:46;98070.75;;;2.97;nan
79400;BME280;68856;45.586;10.264;2024-01-15T07:37:12;98071.69;;;3.43;nan
79400;BME280;68856;45.586;10.264;2024-01-15T07:39:39;98063.34;;;3.28;nan
79400;BME280;68856;45.586;10.264;2024-01-15T07:42:05;98066.81;;;3.28;nan
79400;BME280;68856;45.586;10.264;2024-01-15T07:44:31;98071.59;;;2.86;nan
79400;BME280;68856;45.586;10.264;2024-01-15T07:46:58;98065.41;;;2.74;nan
79400;BME280;68856;45.586;10.264;2024-01-15T07:49:24;98063.44;;;2.81;nan
79400;BME280;68856;45.586;10.264;2024-01-15T07:51:50;98065.09;;;2.47;nan
79400;BME280;68856;45.586;10.264;2024-01-15T07:54:16;98068.66;;;2.18;nan
79400;BME280;68856;45.586;10.264;2024-01-15T07:57:02;98066.00;;;2.30;nan
79400;BME280;68856;45.586;10.264;2024-01-15T07:59:29;98065.06;;;2.36;nan
79400;BME280;68856;45.586;10.264;2024-01-15T08:01:56;98071.72;;;2.45;nan
79400;BME280;68856;45.586;10.264;2024-01-15T08:04:22;98067.53;;;2.61;nan
79400;BME280;68856;45.586;10.264;2024-01-15T08:06:48;98069.84;;;2.57;nan
79400;BME280;68856;45.586;10.264;2024-01-15T08:09:14;98066.94;;;2.70;nan
79400;BME280;68856;45.586;10.264;2024-01-15T08:11:41;98070.78;;;2.63;nan
79400;BME280;68856;45.586;10.264;2024-01-15T08:14:08;98066.13;;;2.46;nan
79400;BME280;68856;45.586;10.264;2024-01-15T08:16:38;98067.97;;;2.46;nan
79400;BME280;68856;45.586;10.264;2024-01-15T08:19:04;98065.41;;;2.74;nan
79400;BME280;68856;45.586;10.264;2024-01-15T08:21:31;98067.16;;;2.80;nan
79400;BME280;68856;45.586;10.264;2024-01-15T08:24:01;98060.09;;;3.14;nan
79400;BME280;68856;45.586;10.264;2024-01-15T08:26:29;98060.59;;;3.67;nan
79400;BME280;68856;45.586;10.264;2024-01-15T08:28:55;98059.50;;;3.52;nan
79400;BME280;68856;45.586;10.264;2024-01-15T08:31:22;98060.56;;;3.51;nan
79400;BME280;68856;45.586;10.264;2024-01-15T08:33:48;98059.22;;;3.65;nan
79400;BME280;68856;45.586;10.264;2024-01-15T08:36:14;98060.84;;;3.94;nan
79400;BME280;68856;45.586;10.264;2024-01-15T08:38:40;98052.06;;;3.70;nan
79400;BME280;68856;45.586;10.264;2024-01-15T08:41:07;98047.19;;;3.67;nan
79400;BME280;68856;45.586;10.264;2024-01-15T08:43:34;98057.06;;;3.50;nan
79400;BME280;68856;45.586;10.264;2024-01-15T08:46:01;98057.16;;;3.27;nan
79400;BME280;68856;45.586;10.264;2024-01-15T08:48:28;98064.03;;;3.63;nan
79400;BME280;68856;45.586;10.264;2024-01-15T08:50:54;98062.28;;;3.57;nan
79400;BME280;68856;45.586;10.264;2024-01-15T08:53:21;98079.81;;;4.04;nan
79400;BME280;68856;45.586;10.264;2024-01-15T08:55:47;98078.34;;;4.13;nan
79400;BME280;68856;45.586;10.264;2024-01-15T08:58:14;98072.97;;;4.13;nan
79400;BME280;68856;45.586;10.264;2024-01-15T09:00:40;98057.56;;;4.42;nan
79400;BME280;68856;45.586;10.264;2024-01-15T09:03:06;98057.44;;;4.49;nan
79400;BME280;68856;45.586;10.264;2024-01-15T09:05:34;98054.84;;;4.75;nan
79400;BME280;68856;45.586;10.264;2024-01-15T09:08:01;98061.44;;;5.06;nan
79400;BME280;68856;45.586;10.264;2024-01-15T09:10:27;98063.34;;;5.06;nan
79400;BME280;68856;45.586;10.264;2024-01-15T09:12:53;98068.38;;;5.19;nan
79400;BME280;68856;45.586;10.264;2024-01-15T09:15:19;98061.34;;;5.39;nan
79400;BME280;68856;45.586;10.264;2024-01-15T09:17:46;98071.03;;;5.40;nan
79400;BME280;68856;45.586;10.264;2024-01-15T09:20:12;98070.28;;;5.66;nan
79400;BME280;68856;45.586;10.264;2024-01-15T09:22:39;98078.41;;;5.50;nan
79400;BME280;68856;45.586;10.264;2024-01-15T09:25:09;98074.22;;;5.37;nan
79400;BME280;68856;45.586;10.264;2024-01-15T09:27:36;98080.13;;;5.56;nan
79400;BME280;68856;45.586;10.264;2024-01-15T09:30:03;98069.59;;;5.81;nan
79400;BME280;68856;45.586;10.264;2024-01-15T09:32:29;98073.06;;;5.98;nan
79400;BME280;68856;45.586;10.264;2024-01-15T09:34:56;98069.72;;;6.18;nan
79400;BME280;68856;45.586;10.264;2024-01-15T09:37:22;98066.03;;;6.24;nan
79400;BME280;68856;45.586;10.264;2024-01-15T09:39:49;98069.63;;;6.35;nan
79400;BME280;68856;45.586;10.264;2024-01-15T09:42:16;98060.00;;;6.85;nan
79400;BME280;68856;45.586;10.264;2024-01-15T09:44:43;98057.25;;;7.27;nan
79400;BME280;68856;45.586;10.264;2024-01-15T09:47:11;98063.56;;;7.48;nan
79400;BME280;68856;45.586;10.264;2024-01-15T09:49:38;98056.50;;;7.42;nan
79400;BME280;68856;45.586;10.264;2024-01-15T09:52:07;98057.53;;;7.31;nan
79400;BME280;68856;45.586;10.264;2024-01-15T09:54:35;98065.91;;;7.34;nan
79400;BME280;68856;45.586;10.264;2024-01-15T09:57:01;98056.78;;;7.40;nan
79400;BME280;68856;45.586;10.264;2024-01-15T09:59:28;98058.97;;;7.53;nan
79400;BME280;68856;45.586;10.264;2024-01-15T10:01:56;98057.63;;;7.56;nan
79400;BME280;68856;45.586;10.264;2024-01-15T10:04:23;98046.78;;;7.51;nan
79400;BME280;68856;45.586;10.264;2024-01-15T10:06:51;98037.06;;;7.45;nan
79400;BME280;68856;45.586;10.264;2024-01-15T10:09:18;98031.66;;;7.45;nan
79400;BME280;68856;45.586;10.264;2024-01-15T10:11:45;98020.38;;;7.73;nan
79400;BME280;68856;45.586;10.264;2024-01-15T10:14:12;98021.94;;;7.49;nan
79400;BME280;68856;45.586;10.264;2024-01-15T10:16:41;98010.72;;;8.28;nan
79400;BME280;68856;45.586;10.264;2024-01-15T10:19:10;98009.88;;;8.52;nan
79400;BME280;68856;45.586;10.264;2024-01-15T10:21:37;98014.47;;;8.01;nan
79400;BME280;68856;45.586;10.264;2024-01-15T10:24:04;98007.72;;;7.99;nan
79400;BME280;68856;45.586;10.264;2024-01-15T10:26:31;98018.28;;;8.21;nan
79400;BME280;68856;45.586;10.264;2024-01-15T10:29:01;98003.91;;;7.95;nan
79400;BME280;68856;45.586;10.264;2024-01-15T10:31:27;97999.59;;;8.14;nan
79400;BME280;68856;45.586;10.264;2024-01-15T10:33:55;97996.34;;;7.92;nan
79400;BME280;68856;45.586;10.264;2024-01-15T10:36:35;97998.72;;;6.81;nan
79400;BME280;68856;45.586;10.264;2024-01-15T10:39:01;98004.34;;;6.79;nan
79400;BME280;68856;45.586;10.264;2024-01-15T10:41:29;97994.06;;;6.76;nan
79400;BME280;68856;45.586;10.264;2024-01-15T10:43:55;97989.28;;;7.71;nan
79400;BME280;68856;45.586;10.264;2024-01-15T10:46:22;97982.00;;;7.76;nan
79400;BME280;68856;45.586;10.264;2024-01-15T10:48:48;97969.84;;;7.64;nan
79400;BME280;68856;45.586;10.264;2024-01-15T10:51:15;97970.94;;;8.18;nan
79400;BME280;68856;45.586;10.264;2024-01-15T10:53:42;97969.84;;;8.49;nan
79400;BME280;68856;45.586;10.264;2024-01-15T10:56:10;97972.28;;;8.46;nan
79400;BME280;68856;45.586;10.264;2024-01-15T10:58:40;97964.66;;;8.73;nan
79400;BME280;68856;45.586;10.264;2024-01-15T11:01:07;97964.59;;;8.83;nan
79400;BME280;68856;45.586;10.264;2024-01-15T11:03:34;97973.34;;;8.50;nan
79400;BME280;68856;45.586;10.264;2024-01-15T11:06:01;97951.78;;;9.58;nan
79400;BME280;68856;45.586;10.264;2024-01-15T11:08:27;97953.38;;;10.02;nan
79400;BME280;68856;45.586;10.264;2024-01-15T11:10:54;97946.09;;;10.32;nan
79400;BME280;68856;45.586;10.264;2024-01-15T11:16:05;97942.19;;;10.09;nan
79400;BME280;68856;45.586;10.264;2024-01-15T11:18:37;97942.63;;;10.26;nan
79400;BME280;68856;45.586;10.264;2024-01-15T11:23:55;97915.44;;;14.22;nan
79400;BME280;68856;45.586;10.264;2024-01-15T11:26:37;97909.31;;;15.26;nan
79400;BME280;68856;45.586;10.264;2024-01-15T11:29:09;97896.16;;;15.45;nan
79400;BME280;68856;45.586;10.264;2024-01-15T11:34:07;97878.13;;;17.84;nan
79400;BME280;68856;45.586;10.264;2024-01-15T11:42:04;97860.69;;;17.39;nan
79400;BME280;68856;45.586;10.264;2024-01-15T11:44:31;97862.59;;;17.18;nan
79400;BME280;68856;45.586;10.264;2024-01-15T11:47:05;97856.28;;;14.87;nan
79400;BME280;68856;45.586;10.264;2024-01-15T11:52:31;97822.16;;;15.58;nan
79400;BME280;68856;45.586;10.264;2024-01-15T11:55:36;97812.66;;;17.24;nan
79400;BME280;68856;45.586;10.264;2024-01-15T11:58:08;97803.34;;;17.79;nan
79400;BME280;68856;45.586;10.264;2024-01-15T12:00:49;97797.16;;;17.70;nan
79400;BME280;68856;45.586;10.264;2024-01-15T12:03:17;97787.81;;;19.12;nan
79400;BME280;68856;45.586;10.264;2024-01-15T12:05:43;97786.94;;;18.48;nan
79400;BME280;68856;45.586;10.264;2024-01-15T12:08:09;97783.44;;;19.23;nan
79400;BME280;68856;45.586;10.264;2024-01-15T12:10:39;97787.63;;;18.45;nan
79400;BME280;68856;45.586;10.264;2024-01-15T12:13:13;97786.09;;;15.48;nan
79400;BME280;68856;45.586;10.264;2024-01-15T12:15:41;97782.84;;;19.98;nan
79400;BME280;68856;45.586;10.264;2024-01-15T12:18:08;97775.25;;;20.07;nan
79400;BME280;68856;45.586;10.264;2024-01-15T12:20:35;97764.78;;;21.25;nan
79400;BME280;68856;45.586;10.264;2024-01-15T12:23:02;97768.19;;;21.19;nan
79400;BME280;68856;45.586;10.264;2024-01-15T12:25:36;97756.13;;;22.68;nan
79400;BME280;68856;45.586;10.264;2024-01-15T12:28:03;97760.44;;;22.01;nan
79400;BME280;68856;45.586;10.264;2024-01-15T12:30:30;97748.97;;;23.19;nan
79400;BME280;68856;45.586;10.264;2024-01-15T12:33:03;97737.69;;;23.05;nan
79400;BME280;68856;45.586;10.264;2024-01-15T12:35:30;97728.41;;;24.16;nan
79400;BME280;68856;45.586;10.264;2024-01-15T12:37:56;97727.09;;;24.07;nan
79400;BME280;68856;45.586;10.264;2024-01-15T12:40:23;97716.19;;;24.25;nan
79400;BME280;68856;45.586;10.264;2024-01-15T12:42:50;97707.41;;;25.21;nan
79400;BME280;68856;45.586;10.264;2024-01-15T12:45:16;97699.75;;;25.90;nan
79400;BME280;68856;45.586;10.264;2024-01-15T12:47:43;97694.72;;;25.27;nan
79400;BME280;68856;45.586;10.264;2024-01-15T12:50:11;97693.63;;;25.46;nan
79400;BME280;68856;45.586;10.264;2024-01-15T12:52:40;97689.78;;;25.82;nan
79400;BME280;68856;45.586;10.264;2024-01-15T12:55:07;97677.16;;;26.51;nan
79400;BME280;68856;45.586;10.264;2024-01-15T12:57:35;97686.28;;;24.07;nan
79400;BME280;68856;45.586;10.264;2024-01-15T13:00:02;97681.09;;;24.50;nan
79400;BME280;68856;45.586;10.264;2024-01-15T13:02:33;97673.16;;;25.06;nan
79400;BME280;68856;45.586;10.264;2024-01-15T13:04:59;97672.81;;;24.53;nan
79400;BME280;68856;45.586;10.264;2024-01-15T13:07:26;97670.88;;;25.19;nan
79400;BME280;68856;45.586;10.264;2024-01-15T13:09:53;97664.41;;;24.97;nan
79400;BME280;68856;45.586;10.264;2024-01-15T13:12:20;97666.28;;;21.33;nan
79400;BME280;68856;45.586;10.264;2024-01-15T13:14:47;97663.72;;;22.27;nan
79400;BME280;68856;45.586;10.264;2024-01-15T13:17:13;97671.81;;;19.97;nan
79400;BME280;68856;45.586;10.264;2024-01-15T13:19:43;97658.41;;;19.24;nan
79400;BME280;68856;45.586;10.264;2024-01-15T13:22:09;97668.78;;;19.86;nan
79400;BME280;68856;45.586;10.264;2024-01-15T13:24:36;97663.19;;;20.45;nan
79400;BME280;68856;45.586;10.264;2024-01-15T13:27:03;97666.53;;;22.57;nan
79400;BME280;68856;45.586;10.264;2024-01-15T13:29:30;97648.41;;;22.85;nan
79400;BME280;68856;45.586;10.264;2024-01-15T13:31:57;97634.84;;;23.10;nan
79400;BME280;68856;45.586;10.264;2024-01-15T13:34:24;97645.47;;;22.00;nan
79400;BME280;68856;45.586;10.264;2024-01-15T13:36:50;97642.16;;;21.30;nan
79400;BME280;68856;45.586;10.264;2024-01-15T13:39:16;97645.84;;;21.37;nan
79400;BME280;68856;45.586;10.264;2024-01-15T13:41:46;97643.25;;;21.86;nan